createdAt,value
2018-05-13T00:00:55.921Z,1029.73
2018-05-13T00:01:55.911Z,1029.77
2018-05-13T00:02:55.906Z,1029.72
2018-05-13T00:03:55.906Z,1029.66
2018-05-13T00:04:55.897Z,1029.74
2018-05-13T00:05:55.897Z,1029.7
2018-05-13T00:06:55.886Z,1029.71
2018-05-13T00:07:55.886Z,1029.72
2018-05-13T00:08:55.876Z,1029.71
2018-05-13T00:09:55.872Z,1029.7
2018-05-13T00:10:55.873Z,1029.72
2018-05-13T00:11:55.867Z,1029.7
2018-05-13T00:12:55.862Z,1029.68
2018-05-13T00:13:55.853Z,1029.64
2018-05-13T00:14:55.847Z,1029.71
2018-05-13T00:15:55.847Z,1029.72
2018-05-13T00:27:55.786Z,1029.67
2018-05-13T00:28:55.785Z,1029.63
2018-05-13T00:29:55.776Z,1029.63
2018-05-13T00:30:55.775Z,1029.61
2018-05-13T00:31:55.766Z,1029.59
2018-05-13T00:32:55.765Z,1029.61
2018-05-13T00:33:55.755Z,1029.64
2018-05-13T00:34:55.755Z,1029.62
2018-05-13T00:35:55.746Z,1029.61
2018-05-13T00:36:55.740Z,1029.57
2018-05-13T00:37:55.738Z,1029.58
2018-05-13T00:38:55.736Z,1029.57
2018-05-13T00:39:55.724Z,1029.57
2018-05-13T00:40:55.725Z,1029.58
2018-05-13T00:41:55.720Z,1029.6
2018-05-13T00:42:55.720Z,1029.6
2018-05-13T00:43:55.705Z,1029.59
2018-05-13T00:44:55.705Z,1029.59
2018-05-13T00:45:55.698Z,1029.56
2018-05-13T00:46:55.695Z,1029.53
2018-05-13T00:47:55.684Z,1029.5
2018-05-13T00:48:55.685Z,1029.51
2018-05-13T00:49:55.674Z,1029.54
2018-05-13T00:50:55.674Z,1029.51
2018-05-13T00:51:55.663Z,1029.51
2018-05-13T00:52:55.659Z,1029.51
2018-05-13T00:53:55.654Z,1029.47
2018-05-13T00:54:55.656Z,1029.49
2018-05-13T00:55:55.648Z,1029.47
2018-05-13T00:56:55.638Z,1029.5
2018-05-13T00:57:55.633Z,1029.5
2018-05-13T00:58:55.628Z,1029.5
2018-05-13T00:59:55.627Z,1029.5
2018-05-13T01:00:55.617Z,1029.53
2018-05-13T01:01:55.616Z,1029.51
2018-05-13T01:02:55.606Z,1029.52
2018-05-13T01:03:55.606Z,1029.56
2018-05-13T01:04:55.596Z,1029.53
2018-05-13T01:05:55.591Z,1029.56
2018-05-13T01:06:55.590Z,1029.52
2018-05-13T01:07:55.581Z,1029.57
2018-05-13T01:08:55.575Z,1029.56
2018-05-13T01:09:55.570Z,1029.6
2018-05-13T01:10:55.570Z,1029.61
2018-05-13T01:11:55.564Z,1029.62
2018-05-13T01:12:55.553Z,1029.62
2018-05-13T01:13:55.548Z,1029.63
2018-05-13T01:14:55.543Z,1029.58
2018-05-13T01:15:55.543Z,1029.57
2018-05-13T01:16:55.532Z,1029.57
2018-05-13T01:17:55.532Z,1029.56
2018-05-13T01:18:55.522Z,1029.61
2018-05-13T01:19:55.523Z,1029.61
2018-05-13T01:21:55.508Z,1029.62
2018-05-13T01:22:55.508Z,1029.59
2018-05-13T01:23:55.500Z,1029.6
2018-05-13T01:24:55.496Z,1029.62
2018-05-13T01:25:55.485Z,1029.63
2018-05-13T01:26:55.485Z,1029.59
2018-05-13T01:27:55.473Z,1029.62
2018-05-13T01:28:55.474Z,1029.58
2018-05-13T01:29:55.464Z,1029.6
2018-05-13T01:30:55.464Z,1029.6
2018-05-13T01:31:55.457Z,1029.6
2018-05-13T01:32:55.447Z,1029.56
2018-05-13T01:33:55.450Z,1029.6
2018-05-13T01:34:55.441Z,1029.56
2018-05-13T01:35:55.437Z,1029.55
2018-05-13T01:36:55.426Z,1029.57
2018-05-13T01:37:55.425Z,1029.54
2018-05-13T01:38:55.421Z,1029.52
2018-05-13T01:39:55.415Z,1029.58
2018-05-13T01:40:55.411Z,1029.54
2018-05-13T01:41:55.402Z,1029.55
2018-05-13T01:42:55.400Z,1029.51
2018-05-13T01:43:55.392Z,1029.53
2018-05-13T01:44:55.396Z,1029.5
2018-05-13T01:45:55.377Z,1029.55
2018-05-13T01:46:55.377Z,1029.52
2018-05-13T01:47:55.367Z,1029.48
2018-05-13T01:48:55.368Z,1029.49
2018-05-13T01:49:55.358Z,1029.5
2018-05-13T01:50:55.351Z,1029.51
2018-05-13T01:51:55.345Z,1029.46
2018-05-13T01:52:55.346Z,1029.48
2018-05-13T01:53:55.341Z,1029.44
2018-05-13T01:54:55.332Z,1029.43
2018-05-13T01:55:55.325Z,1029.46
2018-05-13T01:56:55.326Z,1029.49
2018-05-13T01:57:55.315Z,1029.42
2018-05-13T01:58:55.319Z,1029.37
2018-05-13T01:59:55.304Z,1029.4
2018-05-13T02:00:55.306Z,1029.4
2018-05-13T02:01:55.292Z,1029.37
2018-05-13T02:02:55.293Z,1029.38
2018-05-13T02:03:55.285Z,1029.39
2018-05-13T02:04:55.285Z,1029.4
2018-05-13T02:05:55.271Z,1029.39
2018-05-13T02:06:55.265Z,1029.36
2018-05-13T02:08:07.992Z,1029.36
2018-05-13T02:08:55.264Z,1029.37
2018-05-13T02:09:55.254Z,1029.34
2018-05-13T02:10:55.245Z,1029.37
2018-05-13T02:11:55.237Z,1029.35
2018-05-13T02:12:55.232Z,1029.36
2018-05-13T02:13:55.239Z,1029.32
2018-05-13T02:14:55.221Z,1029.38
2018-05-13T02:15:55.221Z,1029.35
2018-05-13T02:16:55.210Z,1029.35
2018-05-13T02:17:55.209Z,1029.38
2018-05-13T02:18:55.199Z,1029.32
2018-05-13T02:19:55.199Z,1029.35
2018-05-13T02:20:55.188Z,1029.31
2018-05-13T02:21:55.188Z,1029.35
2018-05-13T02:22:55.176Z,1029.32
2018-05-13T02:23:55.171Z,1029.3
2018-05-13T02:24:55.171Z,1029.35
2018-05-13T02:25:55.165Z,1029.33
2018-05-13T02:26:55.155Z,1029.3
2018-05-13T02:27:55.149Z,1029.29
2018-05-13T02:28:55.145Z,1029.29
2018-05-13T02:29:55.144Z,1029.31
2018-05-13T02:30:55.133Z,1029.3
2018-05-13T02:31:55.133Z,1029.35
2018-05-13T02:32:55.123Z,1029.31
2018-05-13T02:33:55.129Z,1029.29
2018-05-13T02:34:55.111Z,1029.27
2018-05-13T02:35:55.111Z,1029.26
2018-05-13T02:36:55.099Z,1029.2
2018-05-13T02:37:55.104Z,1029.22
2018-05-13T02:38:55.094Z,1029.24
2018-05-13T02:39:55.089Z,1029.26
2018-05-13T02:40:55.076Z,1029.21
2018-05-13T02:41:55.072Z,1029.22
2018-05-13T02:42:55.071Z,1029.2
2018-05-13T02:43:55.067Z,1029.23
2018-05-13T02:44:55.078Z,1029.22
2018-05-13T02:45:55.050Z,1029.22
2018-05-13T02:46:55.049Z,1029.21
2018-05-13T02:47:55.046Z,1029.2
2018-05-13T02:48:55.033Z,1029.22
2018-05-13T02:49:55.032Z,1029.19
2018-05-13T02:50:55.108Z,1029.22
2018-05-13T02:52:07.753Z,1029.17
2018-05-13T02:52:55.011Z,1029.17
2018-05-13T02:53:55.019Z,1029.2
2018-05-13T02:54:55.039Z,1029.19
2018-05-13T02:55:54.999Z,1029.2
2018-05-13T02:56:54.991Z,1029.23
2018-05-13T02:57:54.985Z,1029.21
2018-05-13T02:58:54.980Z,1029.23
2018-05-13T02:59:54.982Z,1029.27
2018-05-13T03:00:54.971Z,1029.25
2018-05-13T03:01:54.984Z,1029.25
2018-05-13T03:02:54.959Z,1029.21
2018-05-13T03:03:54.948Z,1029.23
2018-05-13T03:04:54.948Z,1029.28
2018-05-13T03:05:54.944Z,1029.22
2018-05-13T03:06:54.937Z,1029.25
2018-05-13T03:07:54.926Z,1029.27
2018-05-13T03:08:54.925Z,1029.24
2018-05-13T03:09:54.914Z,1029.24
2018-05-13T03:10:54.910Z,1029.25
2018-05-13T03:11:54.903Z,1029.25
2018-05-13T03:12:54.903Z,1029.2
2018-05-13T03:13:54.892Z,1029.21
2018-05-13T03:14:54.892Z,1029.2
2018-05-13T03:15:54.886Z,1029.18
2018-05-13T03:16:54.881Z,1029.15
2018-05-13T03:17:54.869Z,1029.15
2018-05-13T03:18:54.868Z,1029.15
2018-05-13T03:19:54.875Z,1029.12
2018-05-13T03:20:54.858Z,1029.14
2018-05-13T03:21:54.846Z,1029.17
2018-05-13T03:22:54.847Z,1029.16
2018-05-13T03:23:54.835Z,1029.11
2018-05-13T03:24:54.834Z,1029.08
2018-05-13T03:25:54.824Z,1029.08
2018-05-13T03:26:54.819Z,1029.06
2018-05-13T03:27:54.814Z,1029.07
2018-05-13T03:28:54.813Z,1029.08
2018-05-13T03:29:54.823Z,1029.03
2018-05-13T03:30:54.799Z,1029.06
2018-05-13T03:31:54.791Z,1029.06
2018-05-13T03:32:54.785Z,1029.06
2018-05-13T03:33:54.789Z,1029.01
2018-05-13T03:34:54.775Z,1029.02
2018-05-13T03:35:54.774Z,1029
2018-05-13T03:36:54.763Z,1028.98
2018-05-13T03:37:54.763Z,1029
2018-05-13T03:38:54.751Z,1028.98
2018-05-13T03:39:54.746Z,1029
2018-05-13T03:40:54.746Z,1029.01
2018-05-13T03:41:54.736Z,1028.96
2018-05-13T03:42:54.729Z,1028.96
2018-05-13T03:43:54.729Z,1028.96
2018-05-13T03:44:54.728Z,1028.9
2018-05-13T03:45:54.719Z,1028.9
2018-05-13T03:46:54.710Z,1028.89
2018-05-13T03:47:54.702Z,1028.92
2018-05-13T03:48:54.698Z,1028.86
2018-05-13T03:49:54.696Z,1028.85
2018-05-13T03:50:54.686Z,1028.82
2018-05-13T03:51:54.690Z,1028.77
2018-05-13T03:52:54.684Z,1028.7
2018-05-13T03:53:54.669Z,1028.63
2018-05-13T03:54:54.669Z,1028.5
2018-05-13T03:55:54.659Z,1028.41
2018-05-13T03:56:54.661Z,1028.34
2018-05-13T03:57:54.649Z,1028.26
2018-05-13T03:58:54.643Z,1028.11
2018-05-13T03:59:54.638Z,1028.03
2018-05-13T04:00:54.638Z,1027.95
2018-05-13T04:01:54.633Z,1027.88
2018-05-13T04:02:54.623Z,1027.78
2018-05-13T04:03:54.618Z,1027.71
2018-05-13T04:04:54.619Z,1027.61
2018-05-13T04:05:54.608Z,1027.46
2018-05-13T04:06:54.609Z,1027.43
2018-05-13T04:07:54.600Z,1027.31
2018-05-13T04:08:54.600Z,1027.23
2018-05-13T04:09:54.590Z,1027.18
2018-05-13T04:10:54.591Z,1027.08
2018-05-13T04:11:54.581Z,1026.98
2018-05-13T04:12:54.582Z,1026.93
2018-05-13T04:13:54.573Z,1026.81
2018-05-13T04:14:54.570Z,1026.73
2018-05-13T04:15:54.566Z,1026.66
2018-05-13T04:16:54.567Z,1026.6
2018-05-13T04:17:54.564Z,1026.52
2018-05-13T04:18:54.556Z,1026.41
2018-05-13T04:19:54.553Z,1026.32
2018-05-13T04:20:54.549Z,1026.24
2018-05-13T04:21:54.555Z,1026.15
2018-05-13T04:22:54.542Z,1026.02
2018-05-13T04:23:54.544Z,1025.95
2018-05-13T04:24:54.536Z,1025.89
2018-05-13T04:25:54.539Z,1025.81
2018-05-13T04:26:54.531Z,1025.73
2018-05-13T04:27:54.534Z,1025.65
2018-05-13T04:28:54.526Z,1025.58
2018-05-13T04:29:54.535Z,1025.51
2018-05-13T04:30:54.521Z,1025.42
2018-05-13T04:31:54.519Z,1025.36
2018-05-13T04:32:54.522Z,1025.27
2018-05-13T04:33:54.520Z,1025.22
2018-05-13T04:34:54.513Z,1025.14
2018-05-13T04:35:54.512Z,1025.07
2018-05-13T04:36:54.511Z,1024.98
2018-05-13T04:37:54.516Z,1024.9
2018-05-13T04:38:54.508Z,1024.72
2018-05-13T04:39:54.512Z,1024.65
2018-05-13T04:40:54.506Z,1024.5
2018-05-13T04:41:54.509Z,1024.44
2018-05-13T04:42:54.504Z,1024.41
2018-05-13T04:43:54.509Z,1024.3
2018-05-13T04:44:54.503Z,1024.19
2018-05-13T04:45:54.508Z,1024.09
2018-05-13T04:46:54.509Z,1023.94
2018-05-13T04:47:54.509Z,1023.8
2018-05-13T04:48:54.504Z,1023.68
2018-05-13T04:49:54.505Z,1023.61
2018-05-13T04:50:54.511Z,1023.53
2018-05-13T04:51:54.512Z,1023.49
2018-05-13T04:52:54.513Z,1023.38
2018-05-13T04:53:54.509Z,1023.35
2018-05-13T04:54:54.516Z,1023.37
2018-05-13T04:55:54.517Z,1023.33
2018-05-13T04:56:54.515Z,1023.24
2018-05-13T04:57:54.523Z,1023.16
2018-05-13T04:58:54.520Z,1023.11
2018-05-13T04:59:54.527Z,1023.07
2018-05-13T05:00:54.525Z,1022.96
2018-05-13T05:01:54.534Z,1022.9
2018-05-13T05:02:54.537Z,1022.87
2018-05-13T05:03:54.540Z,1022.85
2018-05-13T05:04:54.539Z,1022.84
2018-05-13T05:05:54.542Z,1022.79
2018-05-13T05:06:54.551Z,1022.76
2018-05-13T05:07:54.555Z,1022.77
2018-05-13T05:08:54.607Z,1022.77
2018-05-13T05:09:54.560Z,1022.77
2018-05-13T05:10:54.568Z,1022.78
2018-05-13T05:11:54.567Z,1022.77
2018-05-13T05:12:54.577Z,1022.71
2018-05-13T05:13:54.576Z,1022.67
2018-05-13T05:14:54.585Z,1022.63
2018-05-13T05:15:54.592Z,1022.55
2018-05-13T05:16:54.596Z,1022.42
2018-05-13T05:17:54.598Z,1022.36
2018-05-13T05:18:54.601Z,1022.32
2018-05-13T05:19:54.605Z,1022.26
2018-05-13T05:20:54.616Z,1022.21
2018-05-13T05:21:54.619Z,1022.16
2018-05-13T05:22:54.627Z,1022.12
2018-05-13T05:23:54.634Z,1022.19
2018-05-13T05:24:54.644Z,1022.15
2018-05-13T05:25:54.639Z,1022.08
2018-05-13T05:26:54.651Z,1022
2018-05-13T05:27:54.709Z,1021.89
2018-05-13T05:28:54.663Z,1021.9
2018-05-13T05:29:54.664Z,1021.96
2018-05-13T05:30:54.676Z,1022.07
2018-05-13T05:31:54.679Z,1022.12
2018-05-13T05:32:54.689Z,1022.11
2018-05-13T05:33:54.691Z,1022.11
2018-05-13T05:34:54.703Z,1022
2018-05-13T05:35:54.720Z,1021.88
2018-05-13T05:36:54.711Z,1021.75
2018-05-13T05:37:54.721Z,1021.72
2018-05-13T05:38:54.731Z,1021.73
2018-05-13T05:39:54.737Z,1021.78
2018-05-13T05:40:54.754Z,1021.85
2018-05-13T05:41:54.748Z,1021.8
2018-05-13T05:42:54.759Z,1021.79
2018-05-13T05:43:54.762Z,1021.75
2018-05-13T05:44:54.774Z,1021.69
2018-05-13T05:45:54.777Z,1021.56
2018-05-13T05:46:54.789Z,1021.4
2018-05-13T05:47:54.797Z,1021.28
2018-05-13T05:48:54.802Z,1021.18
2018-05-13T05:49:54.815Z,1021.17
2018-05-13T05:50:54.820Z,1021.16
2018-05-13T05:51:54.829Z,1021.15
2018-05-13T05:52:54.831Z,1021.12
2018-05-13T05:53:54.840Z,1021.18
2018-05-13T05:54:54.854Z,1021.15
2018-05-13T05:55:54.862Z,1021.08
2018-05-13T05:56:54.871Z,1021.04
2018-05-13T05:57:54.882Z,1020.97
2018-05-13T05:58:54.888Z,1020.95
2018-05-13T05:59:54.892Z,1020.96
2018-05-13T06:00:54.906Z,1020.96
2018-05-13T06:01:54.909Z,1020.93
2018-05-13T06:02:54.923Z,1020.88
2018-05-13T06:03:54.927Z,1020.88
2018-05-13T06:04:54.943Z,1020.88
2018-05-13T06:05:54.945Z,1020.85
2018-05-13T06:06:54.955Z,1020.9
2018-05-13T06:07:54.964Z,1020.76
2018-05-13T06:08:54.978Z,1020.7
2018-05-13T06:09:54.987Z,1020.71
2018-05-13T06:10:54.993Z,1020.74
2018-05-13T06:11:55.002Z,1020.67
2018-05-13T06:12:55.016Z,1020.58
2018-05-13T06:13:55.022Z,1020.6
2018-05-13T06:14:55.036Z,1020.71
2018-05-13T06:15:55.041Z,1020.74
2018-05-13T06:16:55.055Z,1020.85
2018-05-13T06:17:55.059Z,1020.92
2018-05-13T06:18:55.076Z,1020.78
2018-05-13T06:19:55.078Z,1020.68
2018-05-13T06:20:55.094Z,1020.53
2018-05-13T06:21:55.098Z,1020.43
2018-05-13T06:22:55.110Z,1020.38
2018-05-13T06:23:55.117Z,1020.25
2018-05-13T06:24:55.134Z,1020.12
2018-05-13T06:25:55.144Z,1020.02
2018-05-13T06:26:55.148Z,1019.92
2018-05-13T06:27:55.159Z,1019.92
2018-05-13T06:28:55.168Z,1019.9
2018-05-13T06:29:55.184Z,1019.89
2018-05-13T06:30:55.189Z,1019.92
2018-05-13T06:31:55.300Z,1019.94
2018-05-13T06:32:55.212Z,1019.92
2018-05-13T06:33:55.226Z,1019.9
2018-05-13T06:34:55.237Z,1019.78
2018-05-13T06:35:55.248Z,1019.69
2018-05-13T06:36:55.253Z,1019.55
2018-05-13T06:37:55.269Z,1019.38
2018-05-13T06:38:55.277Z,1019.23
2018-05-13T06:39:55.287Z,1019.02
2018-05-13T06:40:55.312Z,1018.91
2018-05-13T06:41:55.313Z,1018.78
2018-05-13T06:42:55.319Z,1018.75
2018-05-13T06:43:55.331Z,1018.71
2018-05-13T06:44:55.343Z,1018.7
2018-05-13T06:45:55.358Z,1018.71
2018-05-13T06:46:55.365Z,1018.72
2018-05-13T06:47:55.382Z,1018.8
2018-05-13T06:48:55.389Z,1018.83
2018-05-13T06:49:55.407Z,1018.81
2018-05-13T06:50:55.473Z,1018.78
2018-05-13T06:51:55.431Z,1018.81
2018-05-13T06:52:55.442Z,1018.88
2018-05-13T06:53:55.455Z,1018.82
2018-05-13T06:54:55.468Z,1018.78
2018-05-13T06:55:55.480Z,1018.78
2018-05-13T06:56:55.487Z,1018.67
2018-05-13T06:57:55.500Z,1018.58
2018-05-13T06:58:55.518Z,1018.47
2018-05-13T06:59:55.529Z,1018.39
2018-05-13T07:00:55.542Z,1018.34
2018-05-13T07:01:55.552Z,1018.36
2018-05-13T07:02:55.578Z,1018.38
2018-05-13T07:03:55.580Z,1018.42
2018-05-13T07:04:55.687Z,1018.54
2018-05-13T07:05:55.607Z,1018.58
2018-05-13T07:06:55.617Z,1018.63
2018-05-13T07:07:55.636Z,1018.71
2018-05-13T07:08:55.641Z,1018.78
2018-05-13T07:09:55.661Z,1018.8
2018-05-13T07:10:55.674Z,1018.8
2018-05-13T07:11:55.687Z,1018.79
2018-05-13T07:12:55.696Z,1018.8
2018-05-13T07:13:55.709Z,1018.83
2018-05-13T07:14:55.727Z,1018.98
2018-05-13T07:15:55.741Z,1019.07
2018-05-13T07:16:55.749Z,1019.13
2018-05-13T07:17:55.768Z,1019.18
2018-05-13T07:18:55.776Z,1019.2
2018-05-13T07:19:55.796Z,1019.17
2018-05-13T07:20:55.804Z,1019.17
2018-05-13T07:21:55.822Z,1019.21
2018-05-13T07:22:55.852Z,1019.3
2018-05-13T07:23:55.850Z,1019.39
2018-05-13T07:24:55.858Z,1019.45
2018-05-13T07:25:55.876Z,1019.56
2018-05-13T07:26:55.890Z,1019.56
2018-05-13T07:27:55.903Z,1019.6
2018-05-13T07:28:55.912Z,1019.74
2018-05-13T07:29:55.944Z,1019.77
2018-05-13T07:30:55.942Z,1019.79
2018-05-13T07:31:55.957Z,1019.78
2018-05-13T07:32:55.968Z,1019.84
2018-05-13T07:33:55.982Z,1019.9
2018-05-13T07:34:55.990Z,1019.87
2018-05-13T07:35:56.010Z,1019.75
2018-05-13T07:36:56.017Z,1019.67
2018-05-13T07:37:56.034Z,1019.68
2018-05-13T07:38:56.041Z,1019.62
2018-05-13T07:39:56.059Z,1019.61
2018-05-13T07:40:56.066Z,1019.65
2018-05-13T07:41:56.084Z,1019.6
2018-05-13T07:42:56.097Z,1019.58
2018-05-13T07:43:56.108Z,1019.64
2018-05-13T07:44:56.116Z,1019.66
2018-05-13T07:45:56.131Z,1019.68
2018-05-13T07:46:56.147Z,1019.71
2018-05-13T07:47:56.158Z,1019.62
2018-05-13T07:48:56.173Z,1019.62
2018-05-13T07:49:56.178Z,1019.62
2018-05-13T07:50:56.201Z,1019.53
2018-05-13T07:51:56.267Z,1019.63
2018-05-13T07:52:56.220Z,1019.54
2018-05-13T07:53:56.227Z,1019.52
2018-05-13T07:54:56.245Z,1019.63
2018-05-13T07:55:56.256Z,1019.6
2018-05-13T07:56:56.266Z,1019.65
2018-05-13T07:57:56.359Z,1019.66
2018-05-13T07:58:56.295Z,1019.55
2018-05-13T07:59:56.303Z,1019.42
2018-05-13T08:00:56.311Z,1019.33
2018-05-13T08:01:56.338Z,1019.29
2018-05-13T08:02:56.344Z,1019.18
2018-05-13T08:03:56.351Z,1019.09
2018-05-13T08:04:56.363Z,1019.06
2018-05-13T08:05:56.369Z,1019.1
2018-05-13T08:06:56.386Z,1019.09
2018-05-13T08:07:56.396Z,1019.13
2018-05-13T08:08:56.411Z,1019.08
2018-05-13T08:09:56.419Z,1019.1
2018-05-13T08:10:56.434Z,1019.24
2018-05-13T08:11:56.439Z,1019.38
2018-05-13T08:12:56.457Z,1019.49
2018-05-13T08:13:56.463Z,1019.67
2018-05-13T08:14:56.480Z,1019.8
2018-05-13T08:15:56.486Z,1019.8
2018-05-13T08:16:56.511Z,1019.84
2018-05-13T08:17:56.514Z,1019.91
2018-05-13T08:18:56.520Z,1019.78
2018-05-13T08:19:56.531Z,1019.83
2018-05-13T08:20:56.546Z,1019.78
2018-05-13T08:21:56.553Z,1019.85
2018-05-13T08:22:56.569Z,1019.73
2018-05-13T08:23:56.574Z,1019.66
2018-05-13T08:24:56.590Z,1019.59
2018-05-13T08:25:56.598Z,1019.43
2018-05-13T08:26:56.619Z,1019.25
2018-05-13T08:27:56.616Z,1019.2
2018-05-13T08:28:56.637Z,1019.08
2018-05-13T08:29:56.639Z,1019.08
2018-05-13T08:30:56.650Z,1019.09
2018-05-13T08:31:56.661Z,1019.01
2018-05-13T08:32:56.680Z,1018.87
2018-05-13T08:33:56.687Z,1018.72
2018-05-13T08:34:56.692Z,1018.64
2018-05-13T08:35:56.706Z,1018.58
2018-05-13T08:36:56.721Z,1018.51
2018-05-13T08:37:56.731Z,1018.57
2018-05-13T08:38:56.736Z,1018.56
2018-05-13T08:39:56.753Z,1019
2018-05-13T08:40:56.758Z,1019.56
2018-05-13T08:41:56.793Z,1020.33
2018-05-13T08:42:56.779Z,1021
2018-05-13T08:43:56.795Z,1021.56
2018-05-13T08:44:56.805Z,1022.06
2018-05-13T08:45:56.816Z,1022.41
2018-05-13T08:46:56.821Z,1022.74
2018-05-13T08:47:56.834Z,1023.04
2018-05-13T08:48:56.846Z,1023.25
2018-05-13T08:49:56.853Z,1023.48
2018-05-13T08:50:56.859Z,1023.69
2018-05-13T08:51:56.866Z,1023.85
2018-05-13T08:52:56.875Z,1024.02
2018-05-13T08:53:56.914Z,1024.15
2018-05-13T08:54:56.897Z,1024.38
2018-05-13T08:55:56.901Z,1024.44
2018-05-13T08:56:56.906Z,1024.46
2018-05-13T08:57:56.914Z,1024.63
2018-05-13T08:58:56.917Z,1024.84
2018-05-13T08:59:56.927Z,1024.74
2018-05-13T09:00:56.926Z,1024.82
2018-05-13T09:01:56.941Z,1024.92
2018-05-13T09:02:56.942Z,1024.95
2018-05-13T09:03:56.948Z,1025.02
2018-05-13T09:04:56.960Z,1025.11
2018-05-13T09:05:56.953Z,1025.01
2018-05-13T09:06:56.961Z,1025.19
2018-05-13T09:07:56.964Z,1025.1
2018-05-13T09:08:56.974Z,1025.23
2018-05-13T09:09:56.968Z,1025.2
2018-05-13T09:10:56.982Z,1025.07
2018-05-13T09:11:56.983Z,1025.26
2018-05-13T09:12:56.978Z,1025.25
2018-05-13T09:13:56.999Z,1025.3
2018-05-13T09:14:56.983Z,1025.27
2018-05-13T09:15:56.992Z,1025.34
2018-05-13T09:16:56.989Z,1025.4
2018-05-13T09:17:56.998Z,1025.38
2018-05-13T09:18:56.999Z,1025.33
2018-05-13T09:19:57.005Z,1025.36
2018-05-13T09:20:57.011Z,1025.32
2018-05-13T09:21:57.002Z,1025.34
2018-05-13T09:22:57.013Z,1025.45
2018-05-13T09:23:57.017Z,1025.25
2018-05-13T09:24:57.020Z,1025.42
2018-05-13T09:25:57.012Z,1025.41
2018-05-13T09:26:57.018Z,1025.33
2018-05-13T09:27:57.014Z,1025.36
2018-05-13T09:28:57.023Z,1025.29
2018-05-13T09:29:57.020Z,1025.27
2018-05-13T09:30:57.027Z,1025.33
2018-05-13T09:31:57.023Z,1025.33
2018-05-13T09:32:57.033Z,1025.28
2018-05-13T09:33:57.026Z,1025.28
2018-05-13T09:34:57.027Z,1025.27
2018-05-13T09:35:57.030Z,1025.27
2018-05-13T09:36:57.038Z,1025.3
2018-05-13T09:37:57.033Z,1025.29
2018-05-13T09:38:57.040Z,1025.27
2018-05-13T09:39:57.042Z,1025.23
2018-05-13T09:40:57.043Z,1025.29
2018-05-13T09:41:57.039Z,1025.21
2018-05-13T09:42:57.047Z,1025.24
2018-05-13T09:43:57.044Z,1025.19
2018-05-13T09:44:57.048Z,1025.21
2018-05-13T09:45:57.170Z,1025.26
2018-05-13T09:46:57.052Z,1025.3
2018-05-13T09:47:57.049Z,1025.17
2018-05-13T09:48:57.060Z,1025.13
2018-05-13T09:49:57.054Z,1025.17
2018-05-13T09:50:57.055Z,1025.03
2018-05-13T09:51:57.061Z,1025.08
2018-05-13T09:52:57.062Z,1025.08
2018-05-13T09:53:57.064Z,1025
2018-05-13T09:54:57.061Z,1025.04
2018-05-13T09:55:57.069Z,1024.99
2018-05-13T09:56:57.066Z,1025.03
2018-05-13T09:57:57.072Z,1024.99
2018-05-13T09:58:57.066Z,1025.02
2018-05-13T09:59:57.074Z,1025.07
2018-05-13T10:00:57.078Z,1025.05
2018-05-13T10:01:57.078Z,1025.02
2018-05-13T10:02:57.073Z,1025.01
2018-05-13T10:03:57.076Z,1024.99
2018-05-13T10:04:57.082Z,1024.95
2018-05-13T10:05:57.079Z,1024.88
2018-05-13T10:06:57.080Z,1024.85
2018-05-13T10:07:57.082Z,1024.97
2018-05-13T10:08:57.088Z,1024.99
2018-05-13T10:09:57.094Z,1024.94
2018-05-13T10:10:57.087Z,1024.87
2018-05-13T10:11:57.088Z,1024.86
2018-05-13T10:12:57.090Z,1024.84
2018-05-13T10:13:57.095Z,1024.85
2018-05-13T10:14:57.093Z,1024.86
2018-05-13T10:15:57.105Z,1024.87
2018-05-13T10:16:57.096Z,1024.83
2018-05-13T10:17:57.102Z,1024.79
2018-05-13T10:18:57.099Z,1024.79
2018-05-13T10:19:57.106Z,1024.86
2018-05-13T10:20:57.101Z,1024.75
2018-05-13T10:21:57.110Z,1024.76
2018-05-13T10:22:57.111Z,1024.76
2018-05-13T10:23:57.114Z,1024.75
2018-05-13T10:24:57.109Z,1024.74
2018-05-13T10:25:57.110Z,1024.78
2018-05-13T10:26:57.123Z,1024.84
2018-05-13T10:27:57.120Z,1024.7
2018-05-13T10:28:57.115Z,1024.76
2018-05-13T10:29:57.129Z,1024.67
2018-05-13T10:30:57.121Z,1024.62
2018-05-13T10:31:57.129Z,1024.57
2018-05-13T10:32:57.123Z,1024.54
2018-05-13T10:33:57.129Z,1024.58
2018-05-13T10:34:57.126Z,1024.55
2018-05-13T10:35:57.147Z,1024.53
2018-05-13T10:36:57.129Z,1024.52
2018-05-13T10:37:57.136Z,1024.51
2018-05-13T10:38:57.139Z,1024.57
2018-05-13T10:39:57.139Z,1024.54
2018-05-13T10:40:57.136Z,1024.52
2018-05-13T10:41:57.143Z,1024.46
2018-05-13T10:42:57.139Z,1024.42
2018-05-13T10:43:57.141Z,1024.44
2018-05-13T10:44:57.144Z,1024.42
2018-05-13T10:45:57.151Z,1024.42
2018-05-13T10:46:57.149Z,1024.47
2018-05-13T10:47:57.155Z,1024.41
2018-05-13T10:48:57.150Z,1024.4
2018-05-13T10:49:57.157Z,1024.4
2018-05-13T10:50:57.154Z,1024.42
2018-05-13T10:51:57.160Z,1024.41
2018-05-13T10:52:57.162Z,1024.44
2018-05-13T10:53:57.164Z,1024.5
2018-05-13T10:54:57.161Z,1024.47
2018-05-13T10:55:57.163Z,1024.44
2018-05-13T10:56:57.175Z,1024.4
2018-05-13T10:57:57.171Z,1024.41
2018-05-13T10:58:57.169Z,1024.33
2018-05-13T10:59:57.174Z,1024.33
2018-05-13T11:00:57.172Z,1024.31
2018-05-13T11:01:57.179Z,1024.36
2018-05-13T11:02:57.181Z,1024.27
2018-05-13T11:03:57.182Z,1024.24
2018-05-13T11:04:57.178Z,1024.21
2018-05-13T11:05:57.186Z,1024.24
2018-05-13T11:06:57.183Z,1024.21
2018-05-13T11:07:57.191Z,1024.24
2018-05-13T11:08:57.186Z,1024.2
2018-05-13T11:09:57.195Z,1024.22
2018-05-13T11:10:57.196Z,1024.26
2018-05-13T11:11:57.197Z,1024.27
2018-05-13T11:12:57.194Z,1024.24
2018-05-13T11:13:57.198Z,1024.16
2018-05-13T11:14:57.203Z,1024.21
2018-05-13T11:15:57.207Z,1024.17
2018-05-13T11:16:57.208Z,1024.24
2018-05-13T11:17:57.203Z,1024.26
2018-05-13T11:18:57.217Z,1024.21
2018-05-13T11:19:57.212Z,1024.2
2018-05-13T11:20:57.208Z,1024.16
2018-05-13T11:21:57.215Z,1024.11
2018-05-13T11:22:57.213Z,1024.06
2018-05-13T11:23:57.221Z,1024.16
2018-05-13T11:24:57.228Z,1024.08
2018-05-13T11:25:57.226Z,1024.1
2018-05-13T11:26:57.286Z,1024.11
2018-05-13T11:27:57.227Z,1024.16
2018-05-13T11:28:57.231Z,1024.09
2018-05-13T11:29:57.228Z,1024.04
2018-05-13T11:30:57.233Z,1024.05
2018-05-13T11:31:57.235Z,1024.04
2018-05-13T11:32:57.237Z,1024.06
2018-05-13T11:33:57.233Z,1024.05
2018-05-13T11:34:57.240Z,1024.12
2018-05-13T11:35:57.237Z,1024.05
2018-05-13T11:36:57.244Z,1024.11
2018-05-13T11:37:57.240Z,1024.01
2018-05-13T11:38:57.247Z,1024.02
2018-05-13T11:39:57.351Z,1024.1
2018-05-13T11:40:57.251Z,1024.08
2018-05-13T11:41:57.247Z,1024.05
2018-05-13T11:42:57.249Z,1023.98
2018-05-13T11:43:57.252Z,1024.1
2018-05-13T11:44:57.258Z,1024.08
2018-05-13T11:45:57.254Z,1024.25
2018-05-13T11:46:57.261Z,1024.05
2018-05-13T11:47:57.264Z,1024.05
2018-05-13T11:48:57.264Z,1024.01
2018-05-13T11:49:57.262Z,1024.01
2018-05-13T11:50:57.269Z,1024.03
2018-05-13T11:51:57.265Z,1024.03
2018-05-13T11:52:57.275Z,1023.92
2018-05-13T11:53:57.269Z,1023.95
2018-05-13T11:54:57.278Z,1024.02
2018-05-13T11:55:57.271Z,1023.96
2018-05-13T11:56:57.279Z,1024.08
2018-05-13T11:57:57.276Z,1024.09
2018-05-13T11:58:57.277Z,1023.99
2018-05-13T11:59:57.285Z,1024.06
2018-05-13T12:00:57.286Z,1023.95
2018-05-13T12:01:57.287Z,1023.96
2018-05-13T12:02:57.285Z,1024.05
2018-05-13T12:03:57.285Z,1023.97
2018-05-13T12:04:57.287Z,1023.97
2018-05-13T12:05:57.294Z,1023.93
2018-05-13T12:06:57.294Z,1023.92
2018-05-13T12:07:57.298Z,1023.95
2018-05-13T12:08:57.294Z,1023.86
2018-05-13T12:09:57.312Z,1023.82
2018-05-13T12:10:57.296Z,1023.8
2018-05-13T12:11:57.305Z,1023.76
2018-05-13T12:12:57.306Z,1023.79
2018-05-13T12:13:57.302Z,1023.82
2018-05-13T12:14:57.304Z,1023.75
2018-05-13T12:15:57.306Z,1023.88
2018-05-13T12:16:57.313Z,1023.8
2018-05-13T12:17:57.319Z,1023.81
2018-05-13T12:18:57.310Z,1023.76
2018-05-13T12:19:57.312Z,1023.86
2018-05-13T12:20:57.333Z,1023.8
2018-05-13T12:21:57.319Z,1023.8